Terminal Aerodrome Forecast
Issued by NWS

Home | Current Version | Previous Version | Text Only | Print | Product List | Glossary On
Versions: 1 2 3 4 5 6 7 8 9 10 11 12 13 14 15 16 17 18 19 20
000
FTUS41 KPBZ 241120
TAFDUJ
TAF
KDUJ 241120Z 2412/2512 27007KT P6SM SCT060
      TEMPO 2412/2413 BKN007
     FM241700 27011G19KT P6SM SCT250
     FM250000 28005KT P6SM SCT250=

USA.gov is the U.S. government's official web portal to all federal, state and local government web resources and services.